Pagina principale
METAR-TAF:

METAR-TAF

Aeroporti :

Aeroporto di Roma-Urbe

Roma, Italia

latitudine: 41-57N, longitudine: 012-30E, altezza: 18 m

Osservazione

Il bollettino è stato emesso 7 ore e 39 minuti fa, alle 15:50 UTC
Vento 6 kt da sud, variando fra sud-est e sud/sud-ovest
Temperature 14°C
Umidità 55%
Pressione 1006 hPa
Visibilità 10 km o più
Nubi sparse ad un'altezza di 4000 ft

METAR: LIRU 261550Z 17006KT 140V200 9999 SCT040 14/05 Q1006

Ora: 00:29 (23:29 UTC)

Previsione

Il bollettino è stato emesso 9 ore e 29 minuti fa, alle 14:00 UTC
Previsione valida dal 26 alle 15 UTC al 26 alle 24 UTC
Vento 13 kt da sud/sud-est
Visibilità: 4000 m
Nubi sparse ad un'altezza di 3000 ft
pioggia,

TAF: LIRU 261400Z 2615/2624 16013KT 4000 RA SCT030

Osservazioni e previsioni meteorologiche di più di 4000 aeroporti (messaggi METAR e TAF).

Le stazioni disponibili sono rappresentate dai dischi gialli e rossi sulla carta.

Puntare il mouse per vedere il nome della stazione.

Clicca sopra per visualizzare le osservazioni e previsioni meteorologiche.

Per cambiare la mappa : fare clic sui pulsanti verdi con una croce nera per ingrandire, il pulsante verde con un trattino per diminuire, o sulla freccia verde per le mappe adiacenti.


METAR-TAF: